sensor_id;sensor_type;location;lat;lon;timestamp;temperature;humidity
25871;DHT22;13689;48.590;7.752;2024-03-23T00:53:59;16.10;57.50
25871;DHT22;13689;48.590;7.752;2024-03-23T00:56:25;16.00;57.70
25871;DHT22;13689;48.590;7.752;2024-03-23T00:58:50;15.90;57.80
25871;DHT22;13689;48.590;7.752;2024-03-23T01:01:16;15.80;58.00
25871;DHT22;13689;48.590;7.752;2024-03-23T01:03:41;15.80;58.00
25871;DHT22;13689;48.590;7.752;2024-03-23T01:06:07;15.80;58.10
25871;DHT22;13689;48.590;7.752;2024-03-23T01:08:32;15.70;58.30
25871;DHT22;13689;48.590;7.752;2024-03-23T01:10:58;15.70;58.30
25871;DHT22;13689;48.590;7.752;2024-03-23T01:13:24;15.70;58.40
25871;DHT22;13689;48.590;7.752;2024-03-23T01:15:50;15.70;58.50
25871;DHT22;13689;48.590;7.752;2024-03-23T01:18:17;15.60;58.70
25871;DHT22;13689;48.590;7.752;2024-03-23T01:20:43;15.60;59.00
25871;DHT22;13689;48.590;7.752;2024-03-23T01:23:08;15.50;59.10
25871;DHT22;13689;48.590;7.752;2024-03-23T01:25:34;15.50;59.30
25871;DHT22;13689;48.590;7.752;2024-03-23T01:27:59;15.50;59.50
25871;DHT22;13689;48.590;7.752;2024-03-23T01:30:25;15.50;59.50
25871;DHT22;13689;48.590;7.752;2024-03-23T01:32:50;15.50;59.60
25871;DHT22;13689;48.590;7.752;2024-03-23T01:35:16;15.50;59.60
25871;DHT22;13689;48.590;7.752;2024-03-23T01:37:41;15.50;59.80
25871;DHT22;13689;48.590;7.752;2024-03-23T01:40:07;15.50;59.90
25871;DHT22;13689;48.590;7.752;2024-03-23T01:42:33;15.40;60.00
25871;DHT22;13689;48.590;7.752;2024-03-23T01:44:58;15.40;60.00
25871;DHT22;13689;48.590;7.752;2024-03-23T01:47:23;15.40;60.10
25871;DHT22;13689;48.590;7.752;2024-03-23T01:49:49;15.40;60.20
25871;DHT22;13689;48.590;7.752;2024-03-23T01:52:15;15.30;60.20
25871;DHT22;13689;48.590;7.752;2024-03-23T01:54:40;15.30;60.30
25871;DHT22;13689;48.590;7.752;2024-03-23T01:57:06;15.30;60.40
25871;DHT22;13689;48.590;7.752;2024-03-23T01:59:32;15.30;60.60
25871;DHT22;13689;48.590;7.752;2024-03-23T02:01:57;15.30;61.50
25871;DHT22;13689;48.590;7.752;2024-03-23T02:04:23;15.30;60.80
25871;DHT22;13689;48.590;7.752;2024-03-23T02:06:48;15.30;61.10
25871;DHT22;13689;48.590;7.752;2024-03-23T02:09:14;15.30;61.40
25871;DHT22;13689;48.590;7.752;2024-03-23T02:11:40;15.20;61.40
25871;DHT22;13689;48.590;7.752;2024-03-23T02:14:06;15.20;61.50
25871;DHT22;13689;48.590;7.752;2024-03-23T02:16:33;15.20;61.60
25871;DHT22;13689;48.590;7.752;2024-03-23T02:18:58;15.30;61.90
25871;DHT22;13689;48.590;7.752;2024-03-23T02:21:24;15.30;62.00
25871;DHT22;13689;48.590;7.752;2024-03-23T02:23:49;15.30;62.20
25871;DHT22;13689;48.590;7.752;2024-03-23T02:26:15;15.20;62.30
25871;DHT22;13689;48.590;7.752;2024-03-23T02:28:42;15.20;62.40
25871;DHT22;13689;48.590;7.752;2024-03-23T02:31:07;15.20;62.60
25871;DHT22;13689;48.590;7.752;2024-03-23T02:33:33;15.10;62.60
25871;DHT22;13689;48.590;7.752;2024-03-23T02:35:59;15.10;62.80
25871;DHT22;13689;48.590;7.752;2024-03-23T02:38:25;15.10;62.90
25871;DHT22;13689;48.590;7.752;2024-03-23T02:40:50;15.10;63.00
25871;DHT22;13689;48.590;7.752;2024-03-23T02:43:16;15.10;63.20
25871;DHT22;13689;48.590;7.752;2024-03-23T02:45:41;15.10;63.20
25871;DHT22;13689;48.590;7.752;2024-03-23T02:48:07;15.10;63.20
25871;DHT22;13689;48.590;7.752;2024-03-23T02:50:32;15.20;63.40
25871;DHT22;13689;48.590;7.752;2024-03-23T02:52:58;15.20;63.50
25871;DHT22;13689;48.590;7.752;2024-03-23T02:55:24;15.20;63.60
25871;DHT22;13689;48.590;7.752;2024-03-23T02:57:49;15.20;63.60
25871;DHT22;13689;48.590;7.752;2024-03-23T03:00:15;15.30;63.70
25871;DHT22;13689;48.590;7.752;2024-03-23T03:02:41;15.30;63.70
25871;DHT22;13689;48.590;7.752;2024-03-23T03:05:06;15.40;63.60
25871;DHT22;13689;48.590;7.752;2024-03-23T03:07:34;15.40;63.50
25871;DHT22;13689;48.590;7.752;2024-03-23T03:09:59;15.50;63.40
25871;DHT22;13689;48.590;7.752;2024-03-23T03:12:25;15.50;63.20
25871;DHT22;13689;48.590;7.752;2024-03-23T03:14:50;15.50;63.10
25871;DHT22;13689;48.590;7.752;2024-03-23T03:17:16;15.50;63.10
25871;DHT22;13689;48.590;7.752;2024-03-23T03:19:42;15.40;63.40
25871;DHT22;13689;48.590;7.752;2024-03-23T03:22:07;15.30;63.80
25871;DHT22;13689;48.590;7.752;2024-03-23T03:24:33;15.30;64.20
25871;DHT22;13689;48.590;7.752;2024-03-23T03:26:58;15.30;64.40
25871;DHT22;13689;48.590;7.752;2024-03-23T03:29:24;15.20;64.40
25871;DHT22;13689;48.590;7.752;2024-03-23T03:31:49;15.20;64.50
25871;DHT22;13689;48.590;7.752;2024-03-23T03:34:15;15.20;64.50
25871;DHT22;13689;48.590;7.752;2024-03-23T03:36:41;15.30;64.50
25871;DHT22;13689;48.590;7.752;2024-03-23T03:39:06;15.30;64.70
25871;DHT22;13689;48.590;7.752;2024-03-23T03:41:32;15.20;65.00
25871;DHT22;13689;48.590;7.752;2024-03-23T03:43:58;15.20;65.30
25871;DHT22;13689;48.590;7.752;2024-03-23T03:46:27;15.20;65.70
25871;DHT22;13689;48.590;7.752;2024-03-23T03:48:54;15.10;66.70
25871;DHT22;13689;48.590;7.752;2024-03-23T03:51:19;15.10;66.00
25871;DHT22;13689;48.590;7.752;2024-03-23T03:53:45;15.10;66.10
25871;DHT22;13689;48.590;7.752;2024-03-23T03:56:10;15.00;66.90
25871;DHT22;13689;48.590;7.752;2024-03-23T03:58:36;15.00;66.30
25871;DHT22;13689;48.590;7.752;2024-03-23T04:01:01;15.00;66.30
25871;DHT22;13689;48.590;7.752;2024-03-23T04:03:26;14.90;66.30
25871;DHT22;13689;48.590;7.752;2024-03-23T04:05:53;14.90;66.40
25871;DHT22;13689;48.590;7.752;2024-03-23T04:08:19;14.80;66.60
25871;DHT22;13689;48.590;7.752;2024-03-23T04:10:44;14.80;66.70
25871;DHT22;13689;48.590;7.752;2024-03-23T04:13:11;14.70;66.80
25871;DHT22;13689;48.590;7.752;2024-03-23T04:15:36;14.60;67.20
25871;DHT22;13689;48.590;7.752;2024-03-23T04:18:02;14.50;67.70
25871;DHT22;13689;48.590;7.752;2024-03-23T04:20:27;14.40;68.30
25871;DHT22;13689;48.590;7.752;2024-03-23T04:22:53;14.40;68.70
25871;DHT22;13689;48.590;7.752;2024-03-23T04:25:19;14.30;69.00
25871;DHT22;13689;48.590;7.752;2024-03-23T04:27:45;14.30;69.20
25871;DHT22;13689;48.590;7.752;2024-03-23T04:30:10;14.30;69.50
25871;DHT22;13689;48.590;7.752;2024-03-23T04:32:37;14.20;69.70
25871;DHT22;13689;48.590;7.752;2024-03-23T04:35:02;14.20;70.00
25871;DHT22;13689;48.590;7.752;2024-03-23T04:37:37;14.20;70.50
25871;DHT22;13689;48.590;7.752;2024-03-23T04:40:03;14.20;70.80
25871;DHT22;13689;48.590;7.752;2024-03-23T04:42:29;14.20;71.00
25871;DHT22;13689;48.590;7.752;2024-03-23T04:44:54;14.20;71.70
25871;DHT22;13689;48.590;7.752;2024-03-23T04:47:20;14.10;70.80
25871;DHT22;13689;48.590;7.752;2024-03-23T04:49:46;14.00;70.90
25871;DHT22;13689;48.590;7.752;2024-03-23T04:52:12;13.90;70.80
25871;DHT22;13689;48.590;7.752;2024-03-23T04:54:37;13.90;70.70
25871;DHT22;13689;48.590;7.752;2024-03-23T04:57:03;13.90;70.60
25871;DHT22;13689;48.590;7.752;2024-03-23T04:59:28;13.90;70.50
25871;DHT22;13689;48.590;7.752;2024-03-23T05:01:54;13.90;70.50
25871;DHT22;13689;48.590;7.752;2024-03-23T05:04:19;13.80;70.20
25871;DHT22;13689;48.590;7.752;2024-03-23T05:06:45;13.80;69.80
25871;DHT22;13689;48.590;7.752;2024-03-23T05:09:10;13.80;69.50
25871;DHT22;13689;48.590;7.752;2024-03-23T05:11:40;13.70;69.10
25871;DHT22;13689;48.590;7.752;2024-03-23T05:14:05;13.70;69.10
25871;DHT22;13689;48.590;7.752;2024-03-23T05:16:31;13.70;69.10
25871;DHT22;13689;48.590;7.752;2024-03-23T05:18:56;13.70;68.90
25871;DHT22;13689;48.590;7.752;2024-03-23T05:21:22;13.60;68.70
25871;DHT22;13689;48.590;7.752;2024-03-23T05:23:47;13.60;68.60
25871;DHT22;13689;48.590;7.752;2024-03-23T05:26:13;13.50;68.80
25871;DHT22;13689;48.590;7.752;2024-03-23T05:28:39;13.50;68.80
25871;DHT22;13689;48.590;7.752;2024-03-23T05:31:04;13.50;68.90
25871;DHT22;13689;48.590;7.752;2024-03-23T05:33:30;13.60;68.90
25871;DHT22;13689;48.590;7.752;2024-03-23T05:35:56;13.60;68.70
25871;DHT22;13689;48.590;7.752;2024-03-23T05:38:22;13.50;68.70
25871;DHT22;13689;48.590;7.752;2024-03-23T05:40:57;13.50;68.70
25871;DHT22;13689;48.590;7.752;2024-03-23T05:43:22;13.60;68.90
25871;DHT22;13689;48.590;7.752;2024-03-23T05:45:57;13.60;68.70
25871;DHT22;13689;48.590;7.752;2024-03-23T05:48:23;13.60;68.60
25871;DHT22;13689;48.590;7.752;2024-03-23T05:50:49;13.60;68.60
25871;DHT22;13689;48.590;7.752;2024-03-23T05:53:15;13.60;68.60
25871;DHT22;13689;48.590;7.752;2024-03-23T05:55:40;13.60;68.60
25871;DHT22;13689;48.590;7.752;2024-03-23T05:58:06;13.50;68.40
25871;DHT22;13689;48.590;7.752;2024-03-23T06:00:31;13.40;68.50
25871;DHT22;13689;48.590;7.752;2024-03-23T06:02:57;13.30;68.70
25871;DHT22;13689;48.590;7.752;2024-03-23T06:05:23;13.30;68.80
25871;DHT22;13689;48.590;7.752;2024-03-23T06:07:49;13.30;69.00
25871;DHT22;13689;48.590;7.752;2024-03-23T06:10:15;13.20;69.00
25871;DHT22;13689;48.590;7.752;2024-03-23T06:12:40;13.20;69.00
25871;DHT22;13689;48.590;7.752;2024-03-23T06:15:06;13.30;69.20
25871;DHT22;13689;48.590;7.752;2024-03-23T06:17:38;13.30;69.20
25871;DHT22;13689;48.590;7.752;2024-03-23T06:20:04;13.30;69.10
25871;DHT22;13689;48.590;7.752;2024-03-23T06:22:31;13.30;69.10
25871;DHT22;13689;48.590;7.752;2024-03-23T06:24:57;13.20;69.30
25871;DHT22;13689;48.590;7.752;2024-03-23T06:27:22;13.20;69.10
25871;DHT22;13689;48.590;7.752;2024-03-23T06:29:48;13.10;69.20
25871;DHT22;13689;48.590;7.752;2024-03-23T06:32:13;13.10;69.30
25871;DHT22;13689;48.590;7.752;2024-03-23T06:34:41;13.10;69.20
25871;DHT22;13689;48.590;7.752;2024-03-23T06:37:06;13.10;69.10
25871;DHT22;13689;48.590;7.752;2024-03-23T06:39:32;13.10;68.90
25871;DHT22;13689;48.590;7.752;2024-03-23T06:41:58;13.00;68.70
25871;DHT22;13689;48.590;7.752;2024-03-23T06:44:23;13.00;69.00
25871;DHT22;13689;48.590;7.752;2024-03-23T06:46:49;13.00;69.10
25871;DHT22;13689;48.590;7.752;2024-03-23T06:49:15;13.10;69.10
25871;DHT22;13689;48.590;7.752;2024-03-23T06:51:41;13.20;69.00
25871;DHT22;13689;48.590;7.752;2024-03-23T06:54:06;13.30;68.90
25871;DHT22;13689;48.590;7.752;2024-03-23T06:56:32;13.30;68.80
25871;DHT22;13689;48.590;7.752;2024-03-23T06:58:58;13.30;68.50
25871;DHT22;13689;48.590;7.752;2024-03-23T07:01:23;13.30;68.40
25871;DHT22;13689;48.590;7.752;2024-03-23T07:03:49;13.30;68.20
25871;DHT22;13689;48.590;7.752;2024-03-23T07:06:14;13.50;68.10
25871;DHT22;13689;48.590;7.752;2024-03-23T07:08:40;13.50;67.50
25871;DHT22;13689;48.590;7.752;2024-03-23T07:11:06;13.60;67.60
25871;DHT22;13689;48.590;7.752;2024-03-23T07:13:32;13.60;67.30
25871;DHT22;13689;48.590;7.752;2024-03-23T07:15:57;13.50;67.00
25871;DHT22;13689;48.590;7.752;2024-03-23T07:18:25;13.90;67.10
25871;DHT22;13689;48.590;7.752;2024-03-23T07:20:54;14.50;66.60
25871;DHT22;13689;48.590;7.752;2024-03-23T07:23:24;15.00;65.40
25871;DHT22;13689;48.590;7.752;2024-03-23T07:25:56;15.50;64.50
25871;DHT22;13689;48.590;7.752;2024-03-23T07:28:22;16.00;64.00
25871;DHT22;13689;48.590;7.752;2024-03-23T07:30:47;16.40;61.70
25871;DHT22;13689;48.590;7.752;2024-03-23T07:33:13;16.50;59.80
25871;DHT22;13689;48.590;7.752;2024-03-23T07:35:38;16.90;59.90
25871;DHT22;13689;48.590;7.752;2024-03-23T07:38:03;17.40;59.60
25871;DHT22;13689;48.590;7.752;2024-03-23T07:40:30;17.90;59.00
25871;DHT22;13689;48.590;7.752;2024-03-23T07:42:56;17.60;58.60
25871;DHT22;13689;48.590;7.752;2024-03-23T07:45:21;17.10;58.20
25871;DHT22;13689;48.590;7.752;2024-03-23T07:47:47;16.40;58.10
25871;DHT22;13689;48.590;7.752;2024-03-23T07:50:12;15.90;58.50
25871;DHT22;13689;48.590;7.752;2024-03-23T07:52:38;15.40;58.70
25871;DHT22;13689;48.590;7.752;2024-03-23T07:55:03;15.20;58.90
25871;DHT22;13689;48.590;7.752;2024-03-23T07:57:29;15.00;59.00
25871;DHT22;13689;48.590;7.752;2024-03-23T07:59:54;15.00;58.90
25871;DHT22;13689;48.590;7.752;2024-03-23T08:02:20;15.00;58.60
25871;DHT22;13689;48.590;7.752;2024-03-23T08:04:45;15.20;58.40
25871;DHT22;13689;48.590;7.752;2024-03-23T08:07:11;15.30;57.70
25871;DHT22;13689;48.590;7.752;2024-03-23T08:09:37;15.40;56.90
25871;DHT22;13689;48.590;7.752;2024-03-23T08:12:02;15.40;56.80
25871;DHT22;13689;48.590;7.752;2024-03-23T08:14:28;15.40;56.50
25871;DHT22;13689;48.590;7.752;2024-03-23T08:16:54;16.00;55.90
25871;DHT22;13689;48.590;7.752;2024-03-23T08:19:19;18.30;52.30
25871;DHT22;13689;48.590;7.752;2024-03-23T08:21:45;20.20;49.50
25871;DHT22;13689;48.590;7.752;2024-03-23T08:24:10;21.60;46.90
25871;DHT22;13689;48.590;7.752;2024-03-23T08:26:36;22.10;46.20
25871;DHT22;13689;48.590;7.752;2024-03-23T08:29:03;21.70;46.40
25871;DHT22;13689;48.590;7.752;2024-03-23T08:31:28;20.90;47.00
25871;DHT22;13689;48.590;7.752;2024-03-23T08:33:54;19.50;48.10
25871;DHT22;13689;48.590;7.752;2024-03-23T08:36:19;18.50;49.40
25871;DHT22;13689;48.590;7.752;2024-03-23T08:38:45;17.70;51.10
25871;DHT22;13689;48.590;7.752;2024-03-23T08:41:10;17.20;51.20
25871;DHT22;13689;48.590;7.752;2024-03-23T08:43:37;17.40;51.50
25871;DHT22;13689;48.590;7.752;2024-03-23T08:46:04;17.00;51.30
25871;DHT22;13689;48.590;7.752;2024-03-23T08:48:30;16.90;52.20
25871;DHT22;13689;48.590;7.752;2024-03-23T08:51:08;18.00;51.20
25871;DHT22;13689;48.590;7.752;2024-03-23T08:53:34;17.80;50.40
25871;DHT22;13689;48.590;7.752;2024-03-23T08:56:00;17.40;50.70
25871;DHT22;13689;48.590;7.752;2024-03-23T08:58:26;17.00;51.10
25871;DHT22;13689;48.590;7.752;2024-03-23T09:00:52;16.80;51.50
25871;DHT22;13689;48.590;7.752;2024-03-23T09:03:18;16.90;51.30
25871;DHT22;13689;48.590;7.752;2024-03-23T09:05:43;16.60;51.40
25871;DHT22;13689;48.590;7.752;2024-03-23T09:08:09;16.30;52.20
25871;DHT22;13689;48.590;7.752;2024-03-23T09:10:38;16.00;51.80
25871;DHT22;13689;48.590;7.752;2024-03-23T09:13:03;16.50;52.00
25871;DHT22;13689;48.590;7.752;2024-03-23T09:15:29;16.40;51.60
25871;DHT22;13689;48.590;7.752;2024-03-23T09:17:54;17.00;51.10
25871;DHT22;13689;48.590;7.752;2024-03-23T09:20:20;16.80;50.90
25871;DHT22;13689;48.590;7.752;2024-03-23T09:22:47;16.70;50.80
25871;DHT22;13689;48.590;7.752;2024-03-23T09:25:13;16.40;50.90
25871;DHT22;13689;48.590;7.752;2024-03-23T09:27:38;15.90;51.10
25871;DHT22;13689;48.590;7.752;2024-03-23T09:30:04;15.30;51.50
25871;DHT22;13689;48.590;7.752;2024-03-23T09:32:30;14.70;52.50
25871;DHT22;13689;48.590;7.752;2024-03-23T09:34:55;14.30;53.50
25871;DHT22;13689;48.590;7.752;2024-03-23T09:37:21;14.10;54.50
25871;DHT22;13689;48.590;7.752;2024-03-23T09:39:46;13.80;55.50
25871;DHT22;13689;48.590;7.752;2024-03-23T09:42:12;13.60;56.50
25871;DHT22;13689;48.590;7.752;2024-03-23T09:44:37;13.20;57.10
25871;DHT22;13689;48.590;7.752;2024-03-23T09:47:03;12.80;57.90
25871;DHT22;13689;48.590;7.752;2024-03-23T09:49:29;12.50;58.90
25871;DHT22;13689;48.590;7.752;2024-03-23T09:51:54;12.30;59.50
25871;DHT22;13689;48.590;7.752;2024-03-23T09:54:21;12.30;60.00
25871;DHT22;13689;48.590;7.752;2024-03-23T09:56:47;12.40;60.30
25871;DHT22;13689;48.590;7.752;2024-03-23T09:59:12;12.60;60.10
25871;DHT22;13689;48.590;7.752;2024-03-23T10:01:38;12.80;60.00
25871;DHT22;13689;48.590;7.752;2024-03-23T10:04:03;13.10;59.60
25871;DHT22;13689;48.590;7.752;2024-03-23T10:06:29;13.30;59.20
25871;DHT22;13689;48.590;7.752;2024-03-23T10:08:55;13.60;59.10
25871;DHT22;13689;48.590;7.752;2024-03-23T10:11:20;13.70;58.90
25871;DHT22;13689;48.590;7.752;2024-03-23T10:13:46;13.80;58.60
25871;DHT22;13689;48.590;7.752;2024-03-23T10:16:12;13.90;58.30
25871;DHT22;13689;48.590;7.752;2024-03-23T10:18:45;14.00;58.10
25871;DHT22;13689;48.590;7.752;2024-03-23T10:21:11;13.90;57.90
25871;DHT22;13689;48.590;7.752;2024-03-23T10:23:40;13.90;58.10
25871;DHT22;13689;48.590;7.752;2024-03-23T10:28:51;13.80;58.00
25871;DHT22;13689;48.590;7.752;2024-03-23T10:31:17;13.90;58.20
25871;DHT22;13689;48.590;7.752;2024-03-23T10:33:46;14.10;58.10
25871;DHT22;13689;48.590;7.752;2024-03-23T10:36:12;14.20;58.00
25871;DHT22;13689;48.590;7.752;2024-03-23T10:38:38;14.30;57.90
25871;DHT22;13689;48.590;7.752;2024-03-23T10:41:05;14.40;57.90
25871;DHT22;13689;48.590;7.752;2024-03-23T10:43:31;14.60;58.00
25871;DHT22;13689;48.590;7.752;2024-03-23T10:45:58;14.70;57.70
25871;DHT22;13689;48.590;7.752;2024-03-23T10:48:24;14.60;57.70
25871;DHT22;13689;48.590;7.752;2024-03-23T10:50:49;14.50;57.80
25871;DHT22;13689;48.590;7.752;2024-03-23T10:53:15;14.30;57.80
25871;DHT22;13689;48.590;7.752;2024-03-23T10:55:42;14.10;58.10
25871;DHT22;13689;48.590;7.752;2024-03-23T10:58:09;13.90;58.30
25871;DHT22;13689;48.590;7.752;2024-03-23T11:00:38;13.90;58.40
25871;DHT22;13689;48.590;7.752;2024-03-23T11:05:48;14.20;58.60
25871;DHT22;13689;48.590;7.752;2024-03-23T11:08:29;14.30;58.50
25871;DHT22;13689;48.590;7.752;2024-03-23T11:10:59;14.30;58.60
25871;DHT22;13689;48.590;7.752;2024-03-23T11:13:36;14.10;58.50
25871;DHT22;13689;48.590;7.752;2024-03-23T11:16:22;14.00;58.50
25871;DHT22;13689;48.590;7.752;2024-03-23T11:18:48;13.80;58.50
25871;DHT22;13689;48.590;7.752;2024-03-23T11:24:14;14.10;58.90
25871;DHT22;13689;48.590;7.752;2024-03-23T11:26:40;14.20;58.90
25871;DHT22;13689;48.590;7.752;2024-03-23T11:29:08;14.40;58.60
25871;DHT22;13689;48.590;7.752;2024-03-23T11:31:34;14.60;58.50
25871;DHT22;13689;48.590;7.752;2024-03-23T11:34:04;14.70;58.30
25871;DHT22;13689;48.590;7.752;2024-03-23T11:36:30;14.80;58.00
25871;DHT22;13689;48.590;7.752;2024-03-23T11:38:56;14.60;57.20
25871;DHT22;13689;48.590;7.752;2024-03-23T11:41:21;14.40;57.30
25871;DHT22;13689;48.590;7.752;2024-03-23T11:43:46;14.00;57.90
25871;DHT22;13689;48.590;7.752;2024-03-23T11:46:18;13.70;58.60
25871;DHT22;13689;48.590;7.752;2024-03-23T11:48:49;13.60;59.50
25871;DHT22;13689;48.590;7.752;2024-03-23T11:51:14;13.60;59.80
25871;DHT22;13689;48.590;7.752;2024-03-23T11:53:40;13.60;60.00
25871;DHT22;13689;48.590;7.752;2024-03-23T11:56:06;13.60;60.00
25871;DHT22;13689;48.590;7.752;2024-03-23T11:58:32;13.80;59.80
25871;DHT22;13689;48.590;7.752;2024-03-23T12:01:01;13.90;59.70
25871;DHT22;13689;48.590;7.752;2024-03-23T12:03:28;14.00;59.60
25871;DHT22;13689;48.590;7.752;2024-03-23T12:05:57;13.90;59.40
25871;DHT22;13689;48.590;7.752;2024-03-23T12:08:24;13.80;59.50
25871;DHT22;13689;48.590;7.752;2024-03-23T12:10:53;13.70;59.40
25871;DHT22;13689;48.590;7.752;2024-03-23T12:13:19;13.70;59.20
25871;DHT22;13689;48.590;7.752;2024-03-23T12:15:45;13.60;58.30
25871;DHT22;13689;48.590;7.752;2024-03-23T12:18:11;13.60;58.00
25871;DHT22;13689;48.590;7.752;2024-03-23T12:20:37;13.60;57.80
25871;DHT22;13689;48.590;7.752;2024-03-23T12:23:10;13.80;57.70
25871;DHT22;13689;48.590;7.752;2024-03-23T12:25:36;14.00;57.10
25871;DHT22;13689;48.590;7.752;2024-03-23T12:28:02;14.10;56.60
25871;DHT22;13689;48.590;7.752;2024-03-23T12:30:28;14.20;56.50
25871;DHT22;13689;48.590;7.752;2024-03-23T12:32:53;14.10;55.90
25871;DHT22;13689;48.590;7.752;2024-03-23T12:35:19;13.90;55.70
25871;DHT22;13689;48.590;7.752;2024-03-23T12:37:45;13.70;55.30
25871;DHT22;13689;48.590;7.752;2024-03-23T12:40:10;13.30;56.30
25871;DHT22;13689;48.590;7.752;2024-03-23T12:42:36;13.00;57.70
25871;DHT22;13689;48.590;7.752;2024-03-23T12:45:02;12.80;58.70
25871;DHT22;13689;48.590;7.752;2024-03-23T12:47:30;12.70;59.50
25871;DHT22;13689;48.590;7.752;2024-03-23T12:49:55;12.90;59.80
25871;DHT22;13689;48.590;7.752;2024-03-23T12:52:21;13.10;60.80
25871;DHT22;13689;48.590;7.752;2024-03-23T12:54:48;13.20;59.90
25871;DHT22;13689;48.590;7.752;2024-03-23T12:57:13;13.20;59.90
25871;DHT22;13689;48.590;7.752;2024-03-23T12:59:39;13.30;59.90
25871;DHT22;13689;48.590;7.752;2024-03-23T13:02:05;13.30;59.80
25871;DHT22;13689;48.590;7.752;2024-03-23T13:04:31;13.30;59.50
25871;DHT22;13689;48.590;7.752;2024-03-23T13:06:57;13.40;59.30
25871;DHT22;13689;48.590;7.752;2024-03-23T13:09:22;13.40;59.10
25871;DHT22;13689;48.590;7.752;2024-03-23T13:11:48;13.50;58.80
25871;DHT22;13689;48.590;7.752;2024-03-23T13:14:13;13.40;58.50
25871;DHT22;13689;48.590;7.752;2024-03-23T13:16:41;13.50;58.50
25871;DHT22;13689;48.590;7.752;2024-03-23T13:19:07;13.50;57.90
25871;DHT22;13689;48.590;7.752;2024-03-23T13:21:32;13.50;57.30
25871;DHT22;13689;48.590;7.752;2024-03-23T13:23:58;13.50;56.90
25871;DHT22;13689;48.590;7.752;2024-03-23T13:26:23;13.40;56.70
25871;DHT22;13689;48.590;7.752;2024-03-23T13:28:49;13.30;56.40
25871;DHT22;13689;48.590;7.752;2024-03-23T13:31:14;13.20;56.40
25871;DHT22;13689;48.590;7.752;2024-03-23T13:33:40;13.20;56.80
25871;DHT22;13689;48.590;7.752;2024-03-23T13:36:07;13.30;57.20
25871;DHT22;13689;48.590;7.752;2024-03-23T13:38:33;13.50;57.20
25871;DHT22;13689;48.590;7.752;2024-03-23T13:40:59;13.70;57.30
25871;DHT22;13689;48.590;7.752;2024-03-23T13:43:25;14.00;57.30
25871;DHT22;13689;48.590;7.752;2024-03-23T13:45:54;14.10;56.80
25871;DHT22;13689;48.590;7.752;2024-03-23T13:48:20;14.00;56.70
25871;DHT22;13689;48.590;7.752;2024-03-23T13:50:47;13.80;56.80
25871;DHT22;13689;48.590;7.752;2024-03-23T13:53:15;13.70;56.90
25871;DHT22;13689;48.590;7.752;2024-03-23T13:55:46;13.50;57.00
25871;DHT22;13689;48.590;7.752;2024-03-23T13:58:11;13.50;57.10
25871;DHT22;13689;48.590;7.752;2024-03-23T14:00:37;13.40;57.10
25871;DHT22;13689;48.590;7.752;2024-03-23T14:03:03;13.50;57.10
25871;DHT22;13689;48.590;7.752;2024-03-23T14:05:28;13.40;57.00
25871;DHT22;13689;48.590;7.752;2024-03-23T14:07:55;13.50;57.00
25871;DHT22;13689;48.590;7.752;2024-03-23T14:10:21;13.60;57.00
25871;DHT22;13689;48.590;7.752;2024-03-23T14:12:46;13.70;56.70
25871;DHT22;13689;48.590;7.752;2024-03-23T14:15:12;13.60;56.50
25871;DHT22;13689;48.590;7.752;2024-03-23T14:17:37;13.60;56.30
25871;DHT22;13689;48.590;7.752;2024-03-23T14:20:04;13.50;56.40
25871;DHT22;13689;48.590;7.752;2024-03-23T14:22:31;13.50;56.50
25871;DHT22;13689;48.590;7.752;2024-03-23T14:24:56;13.30;56.00
25871;DHT22;13689;48.590;7.752;2024-03-23T14:27:21;13.10;56.10
25871;DHT22;13689;48.590;7.752;2024-03-23T14:29:48;13.00;56.30
25871;DHT22;13689;48.590;7.752;2024-03-23T14:32:14;13.00;56.40
25871;DHT22;13689;48.590;7.752;2024-03-23T14:34:40;13.20;56.30
25871;DHT22;13689;48.590;7.752;2024-03-23T14:37:06;13.40;55.40
25871;DHT22;13689;48.590;7.752;2024-03-23T14:39:32;13.50;54.60
25871;DHT22;13689;48.590;7.752;2024-03-23T14:42:02;13.40;54.50
25871;DHT22;13689;48.590;7.752;2024-03-23T14:44:28;13.40;54.50
25871;DHT22;13689;48.590;7.752;2024-03-23T14:46:54;13.40;54.10
25871;DHT22;13689;48.590;7.752;2024-03-23T14:49:20;13.20;53.90
25871;DHT22;13689;48.590;7.752;2024-03-23T14:51:46;13.20;54.10
25871;DHT22;13689;48.590;7.752;2024-03-23T14:54:12;13.10;53.90
25871;DHT22;13689;48.590;7.752;2024-03-23T14:56:38;13.10;54.20
25871;DHT22;13689;48.590;7.752;2024-03-23T14:59:04;13.10;54.90
25871;DHT22;13689;48.590;7.752;2024-03-23T15:01:29;13.20;54.30
25871;DHT22;13689;48.590;7.752;2024-03-23T15:03:55;13.30;54.20
25871;DHT22;13689;48.590;7.752;2024-03-23T15:06:20;13.20;54.20
25871;DHT22;13689;48.590;7.752;2024-03-23T15:08:47;13.30;55.00
25871;DHT22;13689;48.590;7.752;2024-03-23T15:11:12;13.40;54.60
25871;DHT22;13689;48.590;7.752;2024-03-23T15:13:38;13.50;54.50
25871;DHT22;13689;48.590;7.752;2024-03-23T15:16:04;13.60;54.40
25871;DHT22;13689;48.590;7.752;2024-03-23T15:18:30;13.60;54.20
25871;DHT22;13689;48.590;7.752;2024-03-23T15:20:57;13.50;53.80
25871;DHT22;13689;48.590;7.752;2024-03-23T15:23:23;13.40;53.70
25871;DHT22;13689;48.590;7.752;2024-03-23T15:25:55;13.30;53.40
25871;DHT22;13689;48.590;7.752;2024-03-23T15:28:23;13.20;53.30
25871;DHT22;13689;48.590;7.752;2024-03-23T15:30:49;13.30;53.40
25871;DHT22;13689;48.590;7.752;2024-03-23T15:33:15;13.40;52.90
25871;DHT22;13689;48.590;7.752;2024-03-23T15:35:40;13.50;52.40
25871;DHT22;13689;48.590;7.752;2024-03-23T15:38:06;13.50;53.00
25871;DHT22;13689;48.590;7.752;2024-03-23T15:40:31;13.30;52.10
25871;DHT22;13689;48.590;7.752;2024-03-23T15:42:57;13.20;52.70
25871;DHT22;13689;48.590;7.752;2024-03-23T15:45:22;13.10;52.20
25871;DHT22;13689;48.590;7.752;2024-03-23T15:47:48;12.90;52.10
25871;DHT22;13689;48.590;7.752;2024-03-23T15:50:14;12.90;52.10
25871;DHT22;13689;48.590;7.752;2024-03-23T15:52:40;12.80;52.00
25871;DHT22;13689;48.590;7.752;2024-03-23T15:55:05;12.80;51.90
25871;DHT22;13689;48.590;7.752;2024-03-23T15:57:34;12.80;52.00
25871;DHT22;13689;48.590;7.752;2024-03-23T16:00:00;12.90;52.10
25871;DHT22;13689;48.590;7.752;2024-03-23T16:02:26;12.90;52.10
25871;DHT22;13689;48.590;7.752;2024-03-23T16:04:53;12.90;52.10
25871;DHT22;13689;48.590;7.752;2024-03-23T16:07:18;12.80;51.90
25871;DHT22;13689;48.590;7.752;2024-03-23T16:09:44;12.70;51.80
25871;DHT22;13689;48.590;7.752;2024-03-23T16:12:09;12.70;51.90
25871;DHT22;13689;48.590;7.752;2024-03-23T16:14:35;12.70;51.90
25871;DHT22;13689;48.590;7.752;2024-03-23T16:17:00;12.60;52.10
25871;DHT22;13689;48.590;7.752;2024-03-23T16:19:26;12.50;52.30
25871;DHT22;13689;48.590;7.752;2024-03-23T16:21:51;12.30;53.00
25871;DHT22;13689;48.590;7.752;2024-03-23T16:24:17;12.00;54.20